createdAt,value
2022-10-14T00:01:21.151Z,4.85
2022-10-14T00:03:52.251Z,4.93
2022-10-14T00:06:22.747Z,4.50
2022-10-14T00:08:51.177Z,4.90
2022-10-14T00:11:27.042Z,4.80
2022-10-14T00:14:01.119Z,4.85
2022-10-14T00:16:34.902Z,4.97
2022-10-14T00:19:03.403Z,5.53
2022-10-14T00:21:34.233Z,5.13
2022-10-14T00:24:02.490Z,4.60
2022-10-14T00:26:36.586Z,4.72
2022-10-14T00:29:11.541Z,5.88
2022-10-14T00:31:39.188Z,5.30
2022-10-14T00:34:06.781Z,4.78
2022-10-14T00:36:34.395Z,5.43
2022-10-14T00:39:02.040Z,5.00
2022-10-14T00:41:33.598Z,4.68
2022-10-14T00:44:07.118Z,4.82
2022-10-14T00:46:37.795Z,4.90
2022-10-14T00:49:19.110Z,5.32
2022-10-14T00:51:57.889Z,5.25
2022-10-14T00:54:34.705Z,5.47
2022-10-14T00:57:02.643Z,5.45
2022-10-14T00:59:31.189Z,5.00
2022-10-14T01:01:58.715Z,5.22
2022-10-14T01:04:27.227Z,4.43
2022-10-14T01:07:19.161Z,4.97
2022-10-14T01:10:01.637Z,4.65
2022-10-14T01:12:36.121Z,4.57
2022-10-14T01:15:25.357Z,4.55
2022-10-14T01:18:08.853Z,4.63
2022-10-14T01:20:45.420Z,4.60
2022-10-14T01:23:18.227Z,3.78
2022-10-14T01:26:02.422Z,3.90
2022-10-14T01:28:52.490Z,4.07
2022-10-14T01:31:23.931Z,4.18
2022-10-14T01:33:56.984Z,3.83
2022-10-14T01:36:37.127Z,3.63
2022-10-14T01:39:20.997Z,4.20
2022-10-14T01:42:08.740Z,3.70
2022-10-14T01:44:41.103Z,3.80
2022-10-14T01:49:56.133Z,3.58
2022-10-14T01:52:28.515Z,3.67
2022-10-14T01:54:59.061Z,4.25
2022-10-14T01:57:31.738Z,3.60
2022-10-14T02:00:00.254Z,3.80
2022-10-14T02:02:27.783Z,3.80
2022-10-14T02:04:55.483Z,3.63
2022-10-14T02:07:35.634Z,3.85
2022-10-14T02:10:21.953Z,4.43
2022-10-14T02:12:52.585Z,4.00
2022-10-14T02:15:22.934Z,3.55
2022-10-14T02:18:15.367Z,3.90
2022-10-14T02:20:49.866Z,3.25
2022-10-14T02:23:23.185Z,3.83
2022-10-14T02:25:52.053Z,3.78
2022-10-14T02:28:23.606Z,3.90
2022-10-14T02:31:01.970Z,3.47
2022-10-14T02:33:36.785Z,3.60
2022-10-14T02:36:11.800Z,3.60
2022-10-14T02:38:41.198Z,3.28
2022-10-14T02:41:16.015Z,3.45
2022-10-14T02:43:45.056Z,3.22
2022-10-14T02:46:13.646Z,3.22
2022-10-14T02:48:41.299Z,2.85
2022-10-14T02:51:08.752Z,3.40
2022-10-14T02:53:38.756Z,2.88
2022-10-14T02:56:07.394Z,3.05
2022-10-14T02:58:35.264Z,2.83
2022-10-14T03:01:02.575Z,3.05
2022-10-14T03:03:30.513Z,3.00
2022-10-14T03:05:58.515Z,2.90
2022-10-14T03:08:27.520Z,2.63
2022-10-14T03:10:57.141Z,3.13
2022-10-14T03:13:25.482Z,2.40
2022-10-14T03:15:52.930Z,2.80
2022-10-14T03:18:21.941Z,2.53
2022-10-14T03:20:54.166Z,2.80
2022-10-14T03:23:27.645Z,2.83
2022-10-14T03:25:55.363Z,2.60
2022-10-14T03:28:27.359Z,2.90
2022-10-14T03:31:20.934Z,2.60
2022-10-14T03:34:08.925Z,2.60
2022-10-14T03:36:37.941Z,2.92
2022-10-14T03:39:06.288Z,2.97
2022-10-14T03:41:53.840Z,2.40
2022-10-14T03:44:31.894Z,2.80
2022-10-14T03:47:18.160Z,2.75
2022-10-14T03:49:46.568Z,2.60
2022-10-14T03:52:26.236Z,2.30
2022-10-14T03:55:03.705Z,2.55
2022-10-14T03:57:31.140Z,2.50
2022-10-14T03:59:59.935Z,2.85
2022-10-14T04:02:42.085Z,2.50
2022-10-14T04:05:32.825Z,2.75
2022-10-14T04:08:03.446Z,2.65
2022-10-14T04:10:31.284Z,2.35
2022-10-14T04:12:59.398Z,2.80
2022-10-14T04:15:32.825Z,2.30
2022-10-14T04:18:20.755Z,2.40
2022-10-14T04:20:49.488Z,2.65
2022-10-14T04:23:21.067Z,2.60
2022-10-14T04:25:55.048Z,2.47
2022-10-14T04:28:24.445Z,2.50
2022-10-14T04:31:05.046Z,2.75
2022-10-14T04:33:43.975Z,2.75
2022-10-14T04:36:19.695Z,2.30
2022-10-14T04:38:47.201Z,2.50
2022-10-14T04:41:14.602Z,2.28
2022-10-14T04:43:47.714Z,2.30
2022-10-14T04:46:25.065Z,2.47
2022-10-14T04:48:55.517Z,2.50
2022-10-14T04:51:29.512Z,2.50
2022-10-14T04:54:18.501Z,2.47
2022-10-14T04:56:54.487Z,2.80
2022-10-14T04:59:22.865Z,2.58
2022-10-14T05:02:06.210Z,2.45
2022-10-14T05:04:41.317Z,2.53
2022-10-14T05:07:09.820Z,2.50
2022-10-14T05:09:39.174Z,2.65
2022-10-14T05:12:24.764Z,2.60
2022-10-14T05:17:37.673Z,2.45
2022-10-14T05:20:08.746Z,2.50
2022-10-14T05:22:39.358Z,2.08
2022-10-14T05:25:07.267Z,2.40
2022-10-14T05:27:34.820Z,2.53
2022-10-14T05:30:04.730Z,2.50
2022-10-14T05:32:35.025Z,2.83
2022-10-14T05:35:06.130Z,2.65
2022-10-14T05:37:40.985Z,2.55
2022-10-14T05:40:09.780Z,2.55
2022-10-14T05:42:38.248Z,2.92
2022-10-14T05:45:06.967Z,2.40
2022-10-14T05:47:39.297Z,2.53
2022-10-14T05:50:14.896Z,2.80
2022-10-14T05:52:44.845Z,3.50
2022-10-14T05:55:18.195Z,3.65
2022-10-14T05:57:46.988Z,4.03
2022-10-14T06:00:24.715Z,4.22
2022-10-14T06:03:00.856Z,3.17
2022-10-14T06:05:28.236Z,3.78
2022-10-14T06:07:55.754Z,3.42
2022-10-14T06:10:23.176Z,3.00
2022-10-14T06:12:50.648Z,3.28
2022-10-14T06:15:18.149Z,3.17
2022-10-14T06:17:45.878Z,3.00
2022-10-14T06:20:13.743Z,3.53
2022-10-14T06:22:42.575Z,3.60
2022-10-14T06:25:09.916Z,3.33
2022-10-14T06:27:37.539Z,3.35
2022-10-14T06:30:05.925Z,3.20
2022-10-14T06:32:33.789Z,3.60
2022-10-14T06:35:03.534Z,3.20
2022-10-14T06:37:31.408Z,3.38
2022-10-14T06:39:58.845Z,3.30
2022-10-14T06:42:28.339Z,3.80
2022-10-14T06:44:57.203Z,3.35
2022-10-14T06:47:24.949Z,3.25
2022-10-14T06:49:54.372Z,3.60
2022-10-14T06:52:24.224Z,3.50
2022-10-14T06:54:56.071Z,3.40
2022-10-14T06:57:23.805Z,3.17
2022-10-14T06:59:52.178Z,3.35
2022-10-14T07:02:20.074Z,3.25
2022-10-14T07:04:47.653Z,3.60
2022-10-14T07:07:15.244Z,3.78
2022-10-14T07:09:42.805Z,3.30
2022-10-14T07:12:10.196Z,3.70
2022-10-14T07:14:40.033Z,3.80
2022-10-14T07:17:09.025Z,3.25
2022-10-14T07:19:37.449Z,3.67
2022-10-14T07:22:05.296Z,3.50
2022-10-14T07:24:32.602Z,3.45
2022-10-14T07:29:30.953Z,3.70
2022-10-14T07:31:58.448Z,5.15
2022-10-14T07:34:25.815Z,3.97
2022-10-14T07:36:53.383Z,4.40
2022-10-14T07:39:21.054Z,5.13
2022-10-14T07:41:48.730Z,5.63
2022-10-14T07:44:21.311Z,4.82
2022-10-14T07:46:56.468Z,5.13
2022-10-14T07:49:23.952Z,4.90
2022-10-14T07:51:51.490Z,5.15
2022-10-14T07:54:22.462Z,5.30
2022-10-14T07:56:50.578Z,5.47
2022-10-14T07:59:19.454Z,5.60
2022-10-14T08:01:51.509Z,5.25
2022-10-14T08:04:19.677Z,5.20
2022-10-14T08:06:51.648Z,5.05
2022-10-14T08:09:19.812Z,5.28
2022-10-14T08:11:49.707Z,4.70
2022-10-14T08:14:17.091Z,5.18
2022-10-14T08:16:49.389Z,5.63
2022-10-14T08:19:17.126Z,4.82
2022-10-14T08:21:45.706Z,6.05
2022-10-14T08:24:15.524Z,5.43
2022-10-14T08:26:53.831Z,5.53
2022-10-14T08:29:24.617Z,5.50
2022-10-14T08:31:55.278Z,4.93
2022-10-14T08:34:24.918Z,5.05
2022-10-14T08:36:52.449Z,5.32
2022-10-14T08:39:21.204Z,5.03
2022-10-14T08:42:26.345Z,5.28
2022-10-14T08:44:58.079Z,4.90
2022-10-14T08:47:35.582Z,4.97
2022-10-14T08:50:27.176Z,4.72
2022-10-14T08:53:06.549Z,5.38
2022-10-14T08:55:37.910Z,5.03
2022-10-14T08:58:34.899Z,5.25
2022-10-14T09:01:34.981Z,4.97
2022-10-14T09:04:14.953Z,5.35
2022-10-14T09:06:54.023Z,4.97
2022-10-14T09:09:52.744Z,5.45
2022-10-14T09:12:29.727Z,5.53
2022-10-14T09:15:15.808Z,5.00
2022-10-14T09:20:30.421Z,5.05
2022-10-14T09:23:18.866Z,4.88
2022-10-14T09:26:11.665Z,5.18
2022-10-14T09:28:41.441Z,4.57
2022-10-14T09:31:14.398Z,4.60
2022-10-14T09:33:44.544Z,4.37
2022-10-14T09:36:23.445Z,4.65
2022-10-14T09:38:53.250Z,4.63
2022-10-14T09:41:30.014Z,4.20
2022-10-14T09:44:20.095Z,4.35
2022-10-14T09:46:59.688Z,4.13
2022-10-14T09:49:35.661Z,4.60
2022-10-14T09:52:04.729Z,4.32
2022-10-14T09:54:33.478Z,3.85
2022-10-14T09:57:17.162Z,4.18
2022-10-14T10:00:07.542Z,3.55
2022-10-14T10:02:41.952Z,3.63
2022-10-14T10:05:27.231Z,4.38
2022-10-14T10:08:17.042Z,4.10
2022-10-14T10:11:09.819Z,4.32
2022-10-14T10:13:44.951Z,4.50
2022-10-14T10:16:27.974Z,3.83
2022-10-14T10:19:19.451Z,4.30
2022-10-14T10:21:47.981Z,4.00
2022-10-14T10:24:26.139Z,3.90
2022-10-14T10:26:58.662Z,3.50
2022-10-14T10:29:32.413Z,4.28
2022-10-14T10:32:07.392Z,4.07
2022-10-14T10:35:32.174Z,3.80
2022-10-14T10:38:24.429Z,3.70
2022-10-14T10:41:17.121Z,4.67
2022-10-14T10:44:05.116Z,3.97
2022-10-14T10:47:04.126Z,3.80
2022-10-14T10:50:10.123Z,3.40
2022-10-14T10:53:04.075Z,3.30
2022-10-14T10:55:44.133Z,3.67
2022-10-14T10:58:50.663Z,3.28
2022-10-14T11:01:46.641Z,3.13
2022-10-14T11:07:34.646Z,4.13
2022-10-14T11:10:39.417Z,3.55
2022-10-14T11:13:35.402Z,2.92
2022-10-14T11:16:21.281Z,3.55
2022-10-14T11:19:15.958Z,3.28
2022-10-14T11:21:52.859Z,3.38
2022-10-14T11:24:33.864Z,3.63
2022-10-14T11:27:18.652Z,4.20
2022-10-14T11:30:09.123Z,4.72
2022-10-14T11:33:01.421Z,4.00
2022-10-14T11:35:53.605Z,4.22
2022-10-14T11:38:54.757Z,4.45
2022-10-14T11:41:32.524Z,4.20
2022-10-14T11:44:23.675Z,4.30
2022-10-14T11:46:58.482Z,5.35
2022-10-14T11:49:31.383Z,5.40
2022-10-14T11:52:06.541Z,4.20
2022-10-14T11:54:43.781Z,4.13
2022-10-14T11:57:15.074Z,3.65
2022-10-14T12:00:04.223Z,4.13
2022-10-14T12:03:09.802Z,3.92
2022-10-14T12:05:46.041Z,4.07
2022-10-14T12:08:36.924Z,3.75
2022-10-14T12:11:15.498Z,3.67
2022-10-14T12:13:47.755Z,3.65
2022-10-14T12:16:19.177Z,4.00
2022-10-14T12:18:50.584Z,3.35
2022-10-14T12:21:21.672Z,3.88
2022-10-14T12:23:55.758Z,3.50
2022-10-14T12:26:23.126Z,3.50
2022-10-14T12:28:53.943Z,3.80
2022-10-14T12:31:28.445Z,3.30
2022-10-14T12:34:11.047Z,3.42
2022-10-14T12:36:43.266Z,3.30
2022-10-14T12:39:19.861Z,3.15
2022-10-14T12:42:01.933Z,2.90
2022-10-14T12:44:57.622Z,3.33
2022-10-14T12:47:37.346Z,3.30
2022-10-14T12:50:32.394Z,3.42
2022-10-14T12:53:02.998Z,3.53
2022-10-14T12:55:56.004Z,3.40
2022-10-14T12:58:35.612Z,3.30
2022-10-14T13:01:18.799Z,3.10
2022-10-14T13:06:35.578Z,2.50
2022-10-14T13:09:12.196Z,2.95
2022-10-14T13:11:51.767Z,3.03
2022-10-14T13:15:00.755Z,3.42
2022-10-14T13:17:29.426Z,2.40
2022-10-14T13:19:58.020Z,2.80
2022-10-14T13:22:33.164Z,2.72
2022-10-14T13:25:12.326Z,2.92
2022-10-14T13:27:59.733Z,2.67
2022-10-14T13:30:39.687Z,2.85
2022-10-14T13:33:19.696Z,2.50
2022-10-14T13:36:13.660Z,2.80
2022-10-14T13:38:46.565Z,2.65
2022-10-14T13:41:29.875Z,2.58
2022-10-14T13:44:01.466Z,2.47
2022-10-14T13:46:41.200Z,2.30
2022-10-14T13:49:17.262Z,2.60
2022-10-14T13:52:00.347Z,2.60
2022-10-14T13:54:32.452Z,2.30
2022-10-14T13:57:53.682Z,2.40
2022-10-14T14:00:42.031Z,2.17
2022-10-14T14:03:23.464Z,2.00
2022-10-14T14:05:51.858Z,2.47
2022-10-14T14:08:42.155Z,2.00
2022-10-14T14:11:20.532Z,2.08
2022-10-14T14:14:18.830Z,1.90
2022-10-14T14:16:55.545Z,2.20
2022-10-14T14:19:26.125Z,2.10
2022-10-14T14:22:18.410Z,2.03
2022-10-14T14:24:48.063Z,1.90
2022-10-14T14:27:24.305Z,1.95
2022-10-14T14:29:54.205Z,1.90
2022-10-14T14:32:31.861Z,1.90
2022-10-14T14:35:03.002Z,1.92
2022-10-14T14:37:55.715Z,1.92
2022-10-14T14:40:22.222Z,1.73
2022-10-14T14:42:55.161Z,1.67
2022-10-14T14:45:40.689Z,1.92
2022-10-14T14:48:11.126Z,1.70
2022-10-14T14:50:43.992Z,2.33
2022-10-14T14:53:17.192Z,1.80
2022-10-14T14:55:54.050Z,1.98
2022-10-14T14:58:27.733Z,1.77
2022-10-14T15:00:56.124Z,1.70
2022-10-14T15:03:28.370Z,1.60
2022-10-14T15:06:02.202Z,1.65
2022-10-14T15:08:38.015Z,1.60
2022-10-14T15:11:06.285Z,1.90
2022-10-14T15:13:39.807Z,1.70
2022-10-14T15:16:07.836Z,1.65
2022-10-14T15:18:37.688Z,1.90
2022-10-14T15:21:11.601Z,1.73
2022-10-14T15:23:52.910Z,1.65
2022-10-14T15:26:23.983Z,1.75
2022-10-14T15:29:10.654Z,1.70
2022-10-14T15:31:43.367Z,1.60
2022-10-14T15:34:16.969Z,1.80
2022-10-14T15:36:48.601Z,2.10
2022-10-14T15:39:18.926Z,1.98
2022-10-14T15:41:48.569Z,2.10
2022-10-14T15:44:16.201Z,1.85
2022-10-14T15:47:04.871Z,2.10
2022-10-14T15:49:42.430Z,1.80
2022-10-14T15:52:15.326Z,1.85
2022-10-14T15:54:45.860Z,2.15
2022-10-14T15:57:23.509Z,1.87
2022-10-14T15:59:52.770Z,1.80
2022-10-14T16:02:33.888Z,1.98
2022-10-14T16:07:52.730Z,1.90
2022-10-14T16:10:32.068Z,1.70
2022-10-14T16:13:04.797Z,1.65
2022-10-14T16:15:52.980Z,2.10
2022-10-14T16:18:23.326Z,1.80
2022-10-14T16:20:53.963Z,2.35
2022-10-14T16:23:27.224Z,2.20
2022-10-14T16:25:58.862Z,2.25
2022-10-14T16:29:06.078Z,2.10
2022-10-14T16:31:59.216Z,2.47
2022-10-14T16:34:43.321Z,2.53
2022-10-14T16:45:09.207Z,2.90
2022-10-14T16:52:13.906Z,3.88
2022-10-14T16:54:51.857Z,2.70
2022-10-14T16:58:02.144Z,2.88
2022-10-14T17:01:05.179Z,2.42
2022-10-14T17:04:12.712Z,2.55
2022-10-14T17:10:54.431Z,2.42
2022-10-14T17:13:38.820Z,2.28
2022-10-14T17:16:06.714Z,2.35
2022-10-14T17:18:37.225Z,2.20
2022-10-14T17:21:10.643Z,2.58
2022-10-14T17:23:42.382Z,2.25
2022-10-14T17:26:14.862Z,2.28
2022-10-14T17:28:42.752Z,2.38
2022-10-14T17:31:19.973Z,2.22
2022-10-14T17:33:47.529Z,1.83
2022-10-14T17:36:28.228Z,1.83
2022-10-14T17:38:57.273Z,2.03
2022-10-14T17:41:27.654Z,1.67
2022-10-14T17:43:58.517Z,1.80
2022-10-14T17:46:26.432Z,2.15
2022-10-14T17:48:56.355Z,1.80
2022-10-14T17:51:25.618Z,2.03
2022-10-14T17:54:00.488Z,2.17
2022-10-14T17:56:29.601Z,1.83
2022-10-14T17:59:02.671Z,2.28
2022-10-14T18:01:37.744Z,1.73
2022-10-14T18:06:47.660Z,2.35
2022-10-14T18:09:22.055Z,1.92
2022-10-14T18:14:40.699Z,2.20
2022-10-14T18:17:13.255Z,1.77
2022-10-14T18:19:41.674Z,1.93
2022-10-14T18:22:11.197Z,1.88
2022-10-14T18:24:41.003Z,1.90
2022-10-14T18:27:08.338Z,1.75
2022-10-14T18:29:40.695Z,2.08
2022-10-14T18:32:09.373Z,1.70
2022-10-14T18:34:36.971Z,1.70
2022-10-14T18:37:04.392Z,1.90
2022-10-14T18:39:32.058Z,1.38
2022-10-14T18:41:59.392Z,1.50
2022-10-14T18:44:26.924Z,2.03
2022-10-14T18:46:54.291Z,1.60
2022-10-14T18:49:21.731Z,1.50
2022-10-14T18:51:49.480Z,1.48
2022-10-14T18:54:19.421Z,1.80
2022-10-14T18:56:46.939Z,1.70
2022-10-14T18:59:20.409Z,1.70
2022-10-14T19:01:52.028Z,1.70
2022-10-14T19:04:22.227Z,1.70
2022-10-14T19:06:50.221Z,1.90
2022-10-14T19:09:24.026Z,1.80
2022-10-14T19:11:52.301Z,1.88
2022-10-14T19:14:20.770Z,2.05
2022-10-14T19:16:49.681Z,1.70
2022-10-14T19:19:19.964Z,1.80
2022-10-14T19:21:54.492Z,1.77
2022-10-14T19:24:24.853Z,1.63
2022-10-14T19:26:54.140Z,1.80
2022-10-14T19:29:25.785Z,1.70
2022-10-14T19:31:57.319Z,1.70
2022-10-14T19:34:27.008Z,1.67
2022-10-14T19:36:55.121Z,1.98
2022-10-14T19:39:30.646Z,1.80
2022-10-14T19:41:58.089Z,1.85
2022-10-14T19:44:26.663Z,1.55
2022-10-14T19:46:54.296Z,1.65
2022-10-14T19:49:22.710Z,1.67
2022-10-14T19:51:51.677Z,1.70
2022-10-14T19:54:19.039Z,1.52
2022-10-14T19:56:46.555Z,1.63
2022-10-14T19:59:16.383Z,1.70
2022-10-14T20:01:43.818Z,1.70
2022-10-14T20:04:13.094Z,1.60
2022-10-14T20:06:41.061Z,1.50
2022-10-14T20:09:12.447Z,1.60
2022-10-14T20:11:39.990Z,1.58
2022-10-14T20:14:09.771Z,1.70
2022-10-14T20:16:37.169Z,1.60
2022-10-14T20:19:06.194Z,1.60
2022-10-14T20:21:33.565Z,1.55
2022-10-14T20:24:01.142Z,1.90
2022-10-14T20:26:28.746Z,1.60
2022-10-14T20:28:56.350Z,1.75
2022-10-14T20:31:26.304Z,1.50
2022-10-14T20:33:56.829Z,1.65
2022-10-14T20:36:28.554Z,1.50
2022-10-14T20:38:56.187Z,1.40
2022-10-14T20:41:27.159Z,1.40
2022-10-14T20:43:59.743Z,1.60
2022-10-14T20:46:27.114Z,1.60
2022-10-14T20:48:57.139Z,1.40
2022-10-14T20:51:25.271Z,1.70
2022-10-14T20:54:01.779Z,1.80
2022-10-14T20:56:35.588Z,1.50
2022-10-14T20:59:07.940Z,1.40
2022-10-14T21:01:39.714Z,1.70
2022-10-14T21:04:10.460Z,1.48
2022-10-14T21:06:41.123Z,1.48
2022-10-14T21:09:10.944Z,1.70
2022-10-14T21:11:39.367Z,1.50
2022-10-14T21:14:09.362Z,1.58
2022-10-14T21:16:39.853Z,1.40
2022-10-14T21:19:09.320Z,1.30
2022-10-14T21:21:41.899Z,1.65
2022-10-14T21:24:18.213Z,1.50
2022-10-14T21:26:48.574Z,1.70
2022-10-14T21:29:20.720Z,1.40
2022-10-14T21:31:49.587Z,1.38
2022-10-14T21:34:17.209Z,1.70
2022-10-14T21:36:44.965Z,1.38
2022-10-14T21:39:15.247Z,1.60
2022-10-14T21:41:42.917Z,1.48
2022-10-14T21:44:17.125Z,1.70
2022-10-14T21:46:47.075Z,1.60
2022-10-14T21:49:22.442Z,1.70
2022-10-14T21:51:50.027Z,1.48
2022-10-14T21:54:22.178Z,1.60
2022-10-14T21:56:49.684Z,1.40
2022-10-14T21:59:17.475Z,2.15
2022-10-14T22:01:44.950Z,1.38
2022-10-14T22:04:12.548Z,1.80
2022-10-14T22:06:39.851Z,1.70
2022-10-14T22:09:07.586Z,2.08
2022-10-14T22:11:37.945Z,2.10
2022-10-14T22:14:07.349Z,1.92
2022-10-14T22:16:35.590Z,2.10
2022-10-14T22:19:10.430Z,1.80
2022-10-14T22:21:39.136Z,1.77
2022-10-14T22:24:09.671Z,1.75
2022-10-14T22:26:40.482Z,2.13
2022-10-14T22:29:13.787Z,1.77
2022-10-14T22:34:14.783Z,1.90
2022-10-14T22:36:42.782Z,1.80
2022-10-14T22:39:14.766Z,1.92
2022-10-14T22:41:42.124Z,1.90
2022-10-14T22:44:10.301Z,2.25
2022-10-14T22:46:39.166Z,1.83
2022-10-14T22:49:06.747Z,1.77
2022-10-14T22:51:37.416Z,1.85
2022-10-14T22:54:05.023Z,2.00
2022-10-14T22:56:33.804Z,1.83
2022-10-14T22:59:07.696Z,1.80
2022-10-14T23:01:35.603Z,1.90
2022-10-14T23:04:04.024Z,1.65
2022-10-14T23:06:32.424Z,1.80
2022-10-14T23:09:00.682Z,2.10
2022-10-14T23:11:31.751Z,1.60
2022-10-14T23:14:04.578Z,1.63
2022-10-14T23:16:35.459Z,1.80
2022-10-14T23:19:05.551Z,1.58
2022-10-14T23:21:35.929Z,1.33
2022-10-14T23:24:08.097Z,1.48
2022-10-14T23:26:38.606Z,1.40
2022-10-14T23:29:09.833Z,1.20
2022-10-14T23:31:38.349Z,1.38
2022-10-14T23:34:10.157Z,1.50
2022-10-14T23:36:43.838Z,1.15
2022-10-14T23:39:11.571Z,1.15
2022-10-14T23:41:40.058Z,1.10
2022-10-14T23:44:10.168Z,1.05
2022-10-14T23:46:37.467Z,1.10
2022-10-14T23:49:25.039Z,1.08
2022-10-14T23:51:52.456Z,1.13
2022-10-14T23:54:21.312Z,1.00
2022-10-14T23:56:50.801Z,1.10
2022-10-14T23:59:18.339Z,1.02
